createdAt,value
2022-10-24T00:00:02.299Z,14.45
2022-10-24T00:02:30.840Z,15.07
2022-10-24T00:05:02.151Z,12.48
2022-10-24T00:07:31.660Z,14.48
2022-10-24T00:09:58.894Z,12.00
2022-10-24T00:12:26.120Z,13.20
2022-10-24T00:14:54.275Z,13.50
2022-10-24T00:17:22.582Z,14.45
2022-10-24T00:19:50.640Z,13.48
2022-10-24T00:22:18.068Z,13.27
2022-10-24T00:24:46.491Z,14.15
2022-10-24T00:27:13.892Z,17.08
2022-10-24T00:29:42.463Z,12.95
2022-10-24T00:50:59.778Z,12.65
2022-10-24T00:53:32.125Z,12.90
2022-10-24T00:56:02.731Z,12.10
2022-10-24T00:58:32.621Z,16.02
2022-10-24T01:01:00.212Z,17.23
2022-10-24T01:03:28.430Z,12.15
2022-10-24T01:06:27.208Z,16.33
2022-10-24T01:09:27.249Z,12.30
2022-10-24T01:12:15.797Z,14.00
2022-10-24T01:14:47.900Z,16.75
2022-10-24T01:17:59.163Z,15.20
2022-10-24T01:20:37.968Z,14.50
2022-10-24T01:23:43.120Z,18.80
2022-10-24T01:26:41.826Z,14.30
2022-10-24T01:29:33.368Z,12.30
2022-10-24T01:32:20.657Z,13.40
2022-10-24T01:35:11.700Z,14.25
2022-10-24T01:38:06.049Z,13.05
2022-10-24T01:41:01.093Z,14.85
2022-10-24T01:43:36.517Z,13.88
2022-10-24T01:46:12.233Z,14.38
2022-10-24T01:48:49.700Z,16.25
2022-10-24T01:51:22.482Z,15.60
2022-10-24T01:59:34.068Z,17.10
2022-10-24T02:02:23.302Z,15.60
2022-10-24T02:07:30.388Z,16.65
2022-10-24T02:18:06.477Z,15.10
2022-10-24T02:23:56.267Z,11.43
2022-10-24T02:40:34.627Z,13.25
2022-10-24T02:43:06.442Z,11.70
2022-10-24T02:45:37.322Z,13.68
2022-10-24T02:48:11.002Z,10.85
2022-10-24T02:50:43.916Z,13.95
2022-10-24T02:53:26.939Z,13.60
2022-10-24T02:56:06.056Z,11.80
2022-10-24T02:58:34.799Z,13.68
2022-10-24T03:09:12.673Z,10.35
2022-10-24T03:54:57.236Z,7.38
2022-10-24T04:02:52.902Z,8.32
2022-10-24T04:05:20.712Z,6.20
2022-10-24T04:07:49.551Z,8.82
2022-10-24T04:10:16.543Z,6.35
2022-10-24T04:12:43.870Z,9.50
2022-10-24T04:15:11.801Z,6.63
2022-10-24T04:17:38.891Z,7.47
2022-10-24T04:20:11.749Z,7.70
2022-10-24T04:22:39.232Z,5.63
2022-10-24T04:25:06.503Z,12.25
2022-10-24T04:27:34.121Z,5.90
2022-10-24T04:30:00.989Z,7.32
2022-10-24T04:32:30.710Z,6.32
2022-10-24T04:35:02.477Z,6.95
2022-10-24T04:37:30.047Z,7.60
2022-10-24T04:39:57.505Z,8.50
2022-10-24T04:42:26.237Z,5.03
2022-10-24T04:44:53.860Z,6.05
2022-10-24T04:47:23.870Z,5.15
2022-10-24T04:49:54.393Z,6.30
2022-10-24T04:54:56.727Z,5.32
2022-10-24T04:59:59.573Z,6.47
2022-10-24T05:02:31.806Z,6.00
2022-10-24T05:05:06.982Z,7.40
2022-10-24T05:07:39.366Z,6.00
2022-10-24T05:10:09.397Z,5.90
2022-10-24T05:12:39.389Z,4.47
2022-10-24T05:15:08.764Z,7.35
2022-10-24T05:20:22.248Z,7.78
2022-10-24T05:28:19.233Z,7.03
2022-10-24T05:36:16.752Z,5.78
2022-10-24T05:38:47.712Z,5.95
2022-10-24T05:41:15.754Z,5.35
2022-10-24T05:43:43.276Z,4.47
2022-10-24T05:46:18.950Z,6.97
2022-10-24T05:48:53.143Z,10.52
2022-10-24T06:15:42.503Z,6.35
2022-10-24T06:39:46.427Z,8.70
2022-10-24T06:42:16.573Z,6.60
2022-10-24T06:44:44.015Z,8.50
2022-10-24T06:47:12.294Z,6.35
2022-10-24T06:49:40.308Z,5.47
2022-10-24T06:52:09.210Z,6.38
2022-10-24T07:27:02.717Z,6.57
2022-10-24T08:18:46.800Z,4.13
2022-10-24T09:06:55.993Z,7.37
2022-10-24T09:14:43.494Z,8.63
2022-10-24T09:17:23.229Z,4.00
2022-10-24T09:19:57.140Z,5.20
2022-10-24T09:22:30.935Z,4.20
2022-10-24T09:27:41.303Z,3.60
2022-10-24T09:30:19.536Z,3.10
2022-10-24T09:32:47.665Z,2.87
2022-10-24T09:38:20.202Z,6.97
2022-10-24T09:40:52.483Z,3.60
2022-10-24T09:43:26.568Z,4.73
2022-10-24T09:46:10.061Z,5.63
2022-10-24T09:49:11.820Z,4.93
2022-10-24T09:51:51.483Z,3.83
2022-10-24T09:54:21.452Z,2.77
2022-10-24T09:59:58.880Z,5.93
2022-10-24T10:02:34.391Z,5.40
2022-10-24T10:05:04.801Z,4.33
2022-10-24T10:07:37.815Z,4.93
2022-10-24T10:10:27.190Z,3.20
2022-10-24T10:13:03.300Z,9.00
2022-10-24T10:15:36.566Z,2.77
2022-10-24T10:18:28.446Z,6.10
2022-10-24T10:21:19.201Z,6.83
2022-10-24T10:23:52.165Z,5.67
2022-10-24T10:26:28.046Z,4.00
2022-10-24T10:29:01.307Z,3.10
2022-10-24T10:32:08.025Z,4.43
2022-10-24T10:34:40.038Z,4.77
2022-10-24T10:37:43.194Z,7.10
2022-10-24T10:40:34.012Z,5.67
2022-10-24T10:43:39.262Z,2.53
2022-10-24T10:46:11.622Z,7.40
2022-10-24T10:48:51.802Z,4.90
2022-10-24T10:51:42.546Z,7.10
2022-10-24T10:54:28.641Z,4.93
2022-10-24T10:57:10.792Z,4.13
2022-10-24T11:00:20.726Z,6.63
2022-10-24T11:03:06.899Z,6.50
2022-10-24T11:05:41.121Z,3.10
2022-10-24T11:08:19.474Z,6.20
2022-10-24T11:11:13.458Z,3.70
2022-10-24T11:13:53.020Z,5.00
2022-10-24T11:16:27.058Z,4.73
2022-10-24T11:19:09.864Z,4.60
2022-10-24T11:21:39.951Z,6.53
2022-10-24T11:24:22.615Z,5.70
2022-10-24T11:27:02.109Z,4.13
2022-10-24T11:33:00.862Z,9.70
2022-10-24T11:35:40.740Z,4.60
2022-10-24T11:38:19.184Z,8.03
2022-10-24T11:41:01.394Z,4.23
2022-10-24T11:43:42.988Z,6.90
2022-10-24T11:54:40.290Z,7.60
2022-10-24T12:00:08.868Z,9.40
2022-10-24T12:08:09.175Z,5.03
2022-10-24T12:19:07.104Z,4.30
2022-10-24T12:35:36.691Z,3.43
2022-10-24T12:46:23.940Z,3.60
2022-10-24T12:51:42.020Z,3.37
2022-10-24T16:20:14.319Z,4.87
2022-10-24T16:38:47.106Z,12.20
2022-10-24T16:41:19.882Z,5.50
2022-10-24T16:43:49.877Z,8.17
2022-10-24T16:46:20.745Z,6.33
2022-10-24T16:48:48.859Z,8.30
2022-10-24T16:51:20.113Z,8.10
2022-10-24T16:53:47.925Z,7.80
2022-10-24T16:56:16.303Z,6.60
2022-10-24T16:58:47.400Z,7.97
2022-10-24T17:01:22.141Z,10.70
2022-10-24T17:09:15.689Z,12.50
2022-10-24T17:14:27.596Z,8.50
2022-10-24T17:16:57.760Z,11.67
2022-10-24T17:19:26.129Z,12.03
2022-10-24T17:21:53.288Z,8.40
2022-10-24T17:24:23.770Z,12.80
2022-10-24T17:26:56.583Z,10.93
2022-10-24T17:29:30.697Z,13.47
2022-10-24T17:32:00.866Z,15.63
2022-10-24T17:34:30.239Z,10.60
2022-10-24T17:37:02.225Z,8.00
2022-10-24T17:39:32.869Z,10.20
2022-10-24T17:42:02.150Z,17.70
2022-10-24T17:44:29.622Z,9.33
2022-10-24T17:46:59.480Z,9.07
2022-10-24T17:49:27.352Z,8.00
2022-10-24T17:51:54.790Z,9.73
2022-10-24T17:54:24.090Z,8.13
2022-10-24T17:56:51.098Z,10.70
2022-10-24T17:59:18.104Z,9.80
2022-10-24T18:01:45.035Z,10.77
2022-10-24T18:04:16.277Z,9.70
2022-10-24T18:06:44.240Z,11.80
2022-10-24T18:09:25.962Z,8.63
2022-10-24T18:12:10.998Z,9.77
2022-10-24T18:17:25.093Z,11.40
2022-10-24T18:22:58.119Z,13.40
2022-10-24T18:25:39.795Z,7.70
2022-10-24T18:28:10.519Z,15.63
2022-10-24T18:33:33.567Z,9.47
2022-10-24T18:53:08.921Z,12.73
2022-10-24T19:14:31.296Z,12.50
2022-10-24T19:30:28.871Z,8.50
2022-10-24T19:35:43.178Z,9.23
2022-10-24T19:38:12.276Z,9.87
2022-10-24T20:06:52.311Z,7.40
2022-10-24T20:17:21.850Z,10.50
2022-10-24T20:27:50.055Z,8.10
2022-10-24T20:35:43.067Z,12.23
2022-10-24T20:38:10.704Z,10.90
2022-10-24T20:40:40.789Z,10.37
2022-10-24T20:43:09.894Z,11.17
2022-10-24T21:26:05.342Z,9.40
2022-10-24T21:28:37.014Z,7.10
2022-10-24T21:36:28.417Z,8.60
2022-10-24T21:39:00.393Z,9.90
2022-10-24T21:41:29.694Z,8.37
2022-10-24T21:43:56.880Z,12.90
2022-10-24T21:51:53.053Z,10.13
2022-10-24T21:54:27.610Z,10.37
2022-10-24T21:59:53.049Z,8.00
2022-10-24T22:02:21.518Z,8.47
2022-10-24T22:04:50.411Z,11.47
2022-10-24T22:07:23.672Z,8.17
2022-10-24T22:09:52.299Z,9.43
2022-10-24T22:12:20.370Z,7.93
2022-10-24T22:36:30.664Z,6.40
2022-10-24T22:41:34.016Z,4.00
2022-10-24T22:54:42.989Z,4.77
2022-10-24T22:57:11.264Z,7.53
2022-10-24T22:59:42.620Z,7.23
2022-10-24T23:02:22.835Z,6.53
2022-10-24T23:05:14.869Z,6.50
2022-10-24T23:08:07.711Z,3.43
2022-10-24T23:10:38.011Z,5.90
2022-10-24T23:13:06.973Z,5.53
2022-10-24T23:15:38.456Z,6.70
2022-10-24T23:18:12.994Z,8.05
2022-10-24T23:21:01.182Z,4.93
2022-10-24T23:23:35.019Z,4.40
2022-10-24T23:26:30.009Z,4.60
2022-10-24T23:29:27.618Z,5.47
2022-10-24T23:31:54.886Z,4.85
2022-10-24T23:34:22.633Z,7.90
2022-10-24T23:36:50.520Z,6.30
2022-10-24T23:39:39.881Z,5.35
2022-10-24T23:42:09.722Z,4.88
2022-10-24T23:44:41.925Z,6.38
2022-10-24T23:50:08.793Z,7.88
2022-10-24T23:52:41.203Z,5.90
